createdAt,value
2018-01-13T00:00:16.879Z,1016.73
2018-01-13T00:01:16.926Z,1016.73
2018-01-13T00:02:16.929Z,1016.71
2018-01-13T00:03:16.976Z,1016.72
2018-01-13T00:04:16.931Z,1016.72
2018-01-13T00:05:17.021Z,1016.70
2018-01-13T00:06:16.936Z,1016.73
2018-01-13T00:07:16.917Z,1016.72
2018-01-13T00:08:16.935Z,1016.70
2018-01-13T00:09:16.934Z,1016.68
2018-01-13T00:10:17.021Z,1016.72
2018-01-13T00:11:16.960Z,1016.73
2018-01-13T00:12:17.031Z,1016.75
2018-01-13T00:13:16.940Z,1016.71
2018-01-13T00:14:16.932Z,1016.74
2018-01-13T00:15:16.958Z,1016.70
2018-01-13T00:16:16.903Z,1016.71
2018-01-13T00:17:16.910Z,1016.69
2018-01-13T00:18:17.022Z,1016.69
2018-01-13T00:19:16.931Z,1016.71
2018-01-13T00:20:16.997Z,1016.67
2018-01-13T00:21:16.933Z,1016.69
2018-01-13T00:22:16.904Z,1016.69
2018-01-13T00:23:17.028Z,1016.70
2018-01-13T00:24:17.042Z,1016.72
2018-01-13T00:25:16.979Z,1016.71
2018-01-13T00:26:17.042Z,1016.72
2018-01-13T00:27:16.978Z,1016.68
2018-01-13T00:28:17.043Z,1016.68
2018-01-13T00:29:17.049Z,1016.68
2018-01-13T00:30:16.983Z,1016.72
2018-01-13T00:31:17.046Z,1016.72
2018-01-13T00:32:17.047Z,1016.70
2018-01-13T00:33:17.054Z,1016.68
2018-01-13T00:34:16.976Z,1016.69
2018-01-13T00:35:16.918Z,1016.70
2018-01-13T00:36:17.000Z,1016.72
2018-01-13T00:37:16.983Z,1016.70
2018-01-13T00:38:16.916Z,1016.67
2018-01-13T00:39:17.005Z,1016.67
2018-01-13T00:40:17.001Z,1016.68
2018-01-13T00:41:16.922Z,1016.66
2018-01-13T00:42:17.013Z,1016.67
2018-01-13T00:43:17.007Z,1016.65
2018-01-13T00:44:17.016Z,1016.69
2018-01-13T00:45:16.974Z,1016.65
2018-01-13T00:46:17.014Z,1016.66
2018-01-13T00:47:16.948Z,1016.63
2018-01-13T00:48:16.948Z,1016.67
2018-01-13T00:49:17.011Z,1016.68
2018-01-13T00:50:16.949Z,1016.67
2018-01-13T00:51:16.921Z,1016.69
2018-01-13T00:52:16.946Z,1016.67
2018-01-13T00:53:16.921Z,1016.67
2018-01-13T00:54:16.991Z,1016.66
2018-01-13T00:55:17.058Z,1016.66
2018-01-13T00:56:16.995Z,1016.68
2018-01-13T00:57:16.994Z,1016.71
2018-01-13T00:58:17.063Z,1016.70
2018-01-13T00:59:16.993Z,1016.69
2018-01-13T01:00:17.059Z,1016.72
2018-01-13T01:01:16.997Z,1016.67
2018-01-13T01:02:17.075Z,1016.67
2018-01-13T01:03:17.062Z,1016.70
2018-01-13T01:04:16.931Z,1016.70
2018-01-13T01:05:16.960Z,1016.71
2018-01-13T01:06:16.989Z,1016.70
2018-01-13T01:07:16.933Z,1016.67
2018-01-13T01:08:16.958Z,1016.68
2018-01-13T01:09:17.018Z,1016.69
2018-01-13T01:10:17.053Z,1016.67
2018-01-13T01:11:17.023Z,1016.70
2018-01-13T01:12:16.940Z,1016.67
2018-01-13T01:13:16.992Z,1016.66
2018-01-13T01:14:16.974Z,1016.69
2018-01-13T01:15:17.066Z,1016.68
2018-01-13T01:16:16.945Z,1016.68
2018-01-13T01:17:17.061Z,1016.71
2018-01-13T01:18:16.976Z,1016.73
2018-01-13T01:19:17.001Z,1016.68
2018-01-13T01:20:17.066Z,1016.70
2018-01-13T01:21:16.982Z,1016.73
2018-01-13T01:22:17.075Z,1016.67
2018-01-13T01:23:17.011Z,1016.69
2018-01-13T01:24:16.978Z,1016.69
2018-01-13T01:25:17.042Z,1016.65
2018-01-13T01:26:16.950Z,1016.67
2018-01-13T01:27:17.002Z,1016.68
2018-01-13T01:28:17.072Z,1016.69
2018-01-13T01:29:17.075Z,1016.69
2018-01-13T01:30:17.073Z,1016.66
2018-01-13T01:31:16.971Z,1016.65
2018-01-13T01:32:17.075Z,1016.66
2018-01-13T01:33:17.093Z,1016.68
2018-01-13T01:34:16.983Z,1016.65
2018-01-13T01:35:17.039Z,1016.66
2018-01-13T01:36:17.083Z,1016.66
2018-01-13T01:37:17.022Z,1016.69
2018-01-13T01:38:17.085Z,1016.68
2018-01-13T01:39:17.022Z,1016.67
2018-01-13T01:40:17.104Z,1016.71
2018-01-13T01:41:17.120Z,1016.70
2018-01-13T01:42:17.024Z,1016.65
2018-01-13T01:43:17.091Z,1016.71
2018-01-13T01:44:17.024Z,1016.66
2018-01-13T01:45:17.039Z,1016.67
2018-01-13T01:46:17.087Z,1016.72
2018-01-13T01:47:16.995Z,1016.73
2018-01-13T01:48:17.028Z,1016.72
2018-01-13T01:49:17.158Z,1016.69
2018-01-13T01:50:17.154Z,1016.73
2018-01-13T01:51:17.015Z,1016.72
2018-01-13T01:52:17.092Z,1016.73
2018-01-13T01:53:17.002Z,1016.75
2018-01-13T01:54:16.998Z,1016.75
2018-01-13T01:55:17.028Z,1016.73
2018-01-13T01:56:17.032Z,1016.72
2018-01-13T01:57:17.097Z,1016.70
2018-01-13T01:58:17.034Z,1016.68
2018-01-13T01:59:17.100Z,1016.69
2018-01-13T02:00:17.058Z,1016.66
2018-01-13T02:01:17.029Z,1016.66
2018-01-13T02:02:17.034Z,1016.68
2018-01-13T02:03:17.030Z,1016.68
2018-01-13T02:04:17.102Z,1016.64
2018-01-13T02:05:17.101Z,1016.63
2018-01-13T02:06:17.105Z,1016.61
2018-01-13T02:07:17.038Z,1016.61
2018-01-13T02:08:16.987Z,1016.57
2018-01-13T02:09:17.037Z,1016.60
2018-01-13T02:10:17.106Z,1016.57
2018-01-13T02:11:17.039Z,1016.54
2018-01-13T02:12:17.107Z,1016.57
2018-01-13T02:13:17.110Z,1016.54
2018-01-13T02:14:17.040Z,1016.49
2018-01-13T02:15:17.107Z,1016.49
2018-01-13T02:16:17.041Z,1016.48
2018-01-13T02:17:17.109Z,1016.45
2018-01-13T02:18:17.043Z,1016.49
2018-01-13T02:19:17.107Z,1016.47
2018-01-13T02:20:17.136Z,1016.47
2018-01-13T02:21:17.118Z,1016.49
2018-01-13T02:22:17.060Z,1016.48
2018-01-13T02:23:17.116Z,1016.45
2018-01-13T02:24:17.111Z,1016.50
2018-01-13T02:25:17.050Z,1016.51
2018-01-13T02:26:17.046Z,1016.45
2018-01-13T02:27:17.051Z,1016.48
2018-01-13T02:28:17.115Z,1016.48
2018-01-13T02:29:17.116Z,1016.48
2018-01-13T02:30:17.117Z,1016.49
2018-01-13T02:31:17.052Z,1016.49
2018-01-13T02:32:17.186Z,1016.51
2018-01-13T02:33:17.121Z,1016.44
2018-01-13T02:34:17.055Z,1016.49
2018-01-13T02:35:17.120Z,1016.52
2018-01-13T02:36:17.060Z,1016.46
2018-01-13T02:37:17.118Z,1016.47
2018-01-13T02:38:17.055Z,1016.43
2018-01-13T02:39:17.123Z,1016.46
2018-01-13T02:40:17.063Z,1016.47
2018-01-13T02:41:17.122Z,1016.46
2018-01-13T02:42:17.061Z,1016.43
2018-01-13T02:43:17.123Z,1016.47
2018-01-13T02:44:17.059Z,1016.45
2018-01-13T02:45:17.128Z,1016.42
2018-01-13T02:46:17.059Z,1016.45
2018-01-13T02:47:17.064Z,1016.45
2018-01-13T02:48:17.126Z,1016.41
2018-01-13T02:49:17.148Z,1016.44
2018-01-13T02:50:17.065Z,1016.40
2018-01-13T02:51:17.127Z,1016.42
2018-01-13T02:52:17.067Z,1016.40
2018-01-13T02:53:17.127Z,1016.39
2018-01-13T02:54:17.064Z,1016.39
2018-01-13T02:55:17.121Z,1016.39
2018-01-13T02:56:17.001Z,1016.39
2018-01-13T02:57:17.056Z,1016.36
2018-01-13T02:58:17.066Z,1016.34
2018-01-13T02:59:17.056Z,1016.38
2018-01-13T03:00:17.064Z,1016.33
2018-01-13T03:01:17.030Z,1016.35
2018-01-13T03:02:17.008Z,1016.38
2018-01-13T03:03:17.121Z,1016.37
2018-01-13T03:04:17.129Z,1016.33
2018-01-13T03:05:17.032Z,1016.33
2018-01-13T03:06:17.071Z,1016.33
2018-01-13T03:07:17.138Z,1016.31
2018-01-13T03:08:17.137Z,1016.35
2018-01-13T03:09:17.079Z,1016.34
2018-01-13T03:10:17.073Z,1016.38
2018-01-13T03:11:17.144Z,1016.38
2018-01-13T03:12:17.139Z,1016.37
2018-01-13T03:13:17.110Z,1016.37
2018-01-13T03:14:17.143Z,1016.36
2018-01-13T03:15:17.107Z,1016.36
2018-01-13T03:16:17.158Z,1016.37
2018-01-13T03:17:17.141Z,1016.36
2018-01-13T03:18:17.142Z,1016.36
2018-01-13T03:19:17.076Z,1016.39
2018-01-13T03:20:17.150Z,1016.37
2018-01-13T03:21:17.148Z,1016.37
2018-01-13T03:22:17.108Z,1016.35
2018-01-13T03:23:17.145Z,1016.36
2018-01-13T03:24:17.083Z,1016.37
2018-01-13T03:25:17.138Z,1016.40
2018-01-13T03:26:17.142Z,1016.36
2018-01-13T03:27:17.054Z,1016.39
2018-01-13T03:28:17.101Z,1016.32
2018-01-13T03:29:17.141Z,1016.41
2018-01-13T03:30:17.074Z,1016.35
2018-01-13T03:31:17.057Z,1016.40
2018-01-13T03:32:17.061Z,1016.38
2018-01-13T03:33:17.076Z,1016.40
2018-01-13T03:34:17.145Z,1016.42
2018-01-13T03:35:17.152Z,1016.40
2018-01-13T03:36:17.088Z,1016.40
2018-01-13T03:37:17.156Z,1016.44
2018-01-13T03:38:17.091Z,1016.43
2018-01-13T03:39:17.158Z,1016.40
2018-01-13T03:40:17.100Z,1016.43
2018-01-13T03:41:17.156Z,1016.43
2018-01-13T03:42:17.097Z,1016.41
2018-01-13T03:43:17.254Z,1016.40
2018-01-13T03:44:17.160Z,1016.36
2018-01-13T03:45:17.030Z,1016.39
2018-01-13T03:46:17.121Z,1016.39
2018-01-13T03:47:17.087Z,1016.42
2018-01-13T03:48:17.062Z,1016.38
2018-01-13T03:49:17.119Z,1016.36
2018-01-13T03:50:17.082Z,1016.35
2018-01-13T03:51:17.148Z,1016.40
2018-01-13T03:52:17.038Z,1016.38
2018-01-13T03:53:17.056Z,1016.39
2018-01-13T03:54:17.128Z,1016.39
2018-01-13T03:55:17.104Z,1016.34
2018-01-13T03:56:17.169Z,1016.35
2018-01-13T03:57:17.104Z,1016.33
2018-01-13T03:58:17.057Z,1016.38
2018-01-13T03:59:17.126Z,1016.34
2018-01-13T04:00:17.167Z,1016.32
2018-01-13T04:01:17.107Z,1016.31
2018-01-13T04:02:17.108Z,1016.34
2018-01-13T04:03:17.176Z,1016.35
2018-01-13T04:04:17.171Z,1016.31
2018-01-13T04:05:17.111Z,1016.28
2018-01-13T04:06:17.075Z,1016.31
2018-01-13T04:07:17.180Z,1016.28
2018-01-13T04:08:17.178Z,1016.24
2018-01-13T04:09:17.174Z,1016.25
2018-01-13T04:10:17.178Z,1016.23
2018-01-13T04:11:17.109Z,1016.25
2018-01-13T04:12:17.177Z,1016.24
2018-01-13T04:13:17.184Z,1016.19
2018-01-13T04:14:17.118Z,1016.21
2018-01-13T04:15:17.187Z,1016.17
2018-01-13T04:16:17.117Z,1016.16
2018-01-13T04:17:17.179Z,1016.18
2018-01-13T04:18:17.117Z,1016.18
2018-01-13T04:19:17.184Z,1016.20
2018-01-13T04:20:17.164Z,1016.18
2018-01-13T04:21:17.182Z,1016.17
2018-01-13T04:22:17.185Z,1016.19
2018-01-13T04:23:17.118Z,1016.19
2018-01-13T04:24:17.186Z,1016.16
2018-01-13T04:25:17.084Z,1016.17
2018-01-13T04:26:17.166Z,1016.19
2018-01-13T04:27:17.146Z,1016.17
2018-01-13T04:28:17.121Z,1016.13
2018-01-13T04:29:17.059Z,1016.11
2018-01-13T04:30:17.079Z,1016.14
2018-01-13T04:31:17.112Z,1016.12
2018-01-13T04:32:17.148Z,1016.15
2018-01-13T04:33:17.064Z,1016.15
2018-01-13T04:34:17.145Z,1016.12
2018-01-13T04:35:17.113Z,1016.10
2018-01-13T04:36:17.092Z,1016.16
2018-01-13T04:37:17.112Z,1016.16
2018-01-13T04:38:17.095Z,1016.19
2018-01-13T04:39:17.188Z,1016.16
2018-01-13T04:40:17.113Z,1016.09
2018-01-13T04:41:17.096Z,1016.15
2018-01-13T04:42:17.113Z,1016.13
2018-01-13T04:43:17.061Z,1016.14
2018-01-13T04:44:17.141Z,1016.14
2018-01-13T04:45:17.097Z,1016.14
2018-01-13T04:46:17.142Z,1016.11
2018-01-13T04:47:17.098Z,1016.11
2018-01-13T04:48:17.096Z,1016.12
2018-01-13T04:49:17.144Z,1016.10
2018-01-13T04:50:17.099Z,1016.12
2018-01-13T04:51:17.105Z,1016.10
2018-01-13T04:52:17.053Z,1016.07
2018-01-13T04:53:17.100Z,1016.04
2018-01-13T04:54:17.106Z,1016.06
2018-01-13T04:55:17.145Z,1016.04
2018-01-13T04:56:17.203Z,1016.07
2018-01-13T04:57:17.139Z,1016.10
2018-01-13T04:58:17.206Z,1016.07
2018-01-13T04:59:17.143Z,1016.12
2018-01-13T05:00:17.140Z,1016.09
2018-01-13T05:01:17.219Z,1016.11
2018-01-13T05:02:17.187Z,1016.05
2018-01-13T05:03:17.145Z,1016.05
2018-01-13T05:04:17.214Z,1016.03
2018-01-13T05:05:17.154Z,1016.07
2018-01-13T05:06:17.066Z,1016.05
2018-01-13T05:07:17.156Z,1016.08
2018-01-13T05:08:17.132Z,1016.07
2018-01-13T05:09:17.102Z,1016.06
2018-01-13T05:10:17.160Z,1016.02
2018-01-13T05:11:17.105Z,1015.99
2018-01-13T05:12:17.081Z,1016.05
2018-01-13T05:13:17.145Z,1016.06
2018-01-13T05:14:17.111Z,1016.04
2018-01-13T05:15:17.166Z,1016.01
2018-01-13T05:16:17.217Z,1016.01
2018-01-13T05:17:17.214Z,1016.01
2018-01-13T05:18:17.151Z,1016.00
2018-01-13T05:19:17.223Z,1016.05
2018-01-13T05:20:17.149Z,1016.00
2018-01-13T05:21:17.216Z,1016.06
2018-01-13T05:22:17.150Z,1016.08
2018-01-13T05:23:17.219Z,1016.04
2018-01-13T05:24:17.171Z,1016.06
2018-01-13T05:25:17.151Z,1016.10
2018-01-13T05:26:17.126Z,1016.15
2018-01-13T05:27:17.128Z,1016.11
2018-01-13T05:28:17.128Z,1016.08
2018-01-13T05:29:17.167Z,1016.11
2018-01-13T05:30:17.163Z,1016.09
2018-01-13T05:31:17.178Z,1016.08
2018-01-13T05:32:17.224Z,1016.12
2018-01-13T05:33:17.148Z,1016.12
2018-01-13T05:34:17.154Z,1016.06
2018-01-13T05:35:17.137Z,1016.06
2018-01-13T05:36:17.163Z,1016.08
2018-01-13T05:37:17.088Z,1016.09
2018-01-13T05:38:17.151Z,1016.13
2018-01-13T05:39:17.129Z,1016.08
2018-01-13T05:40:17.187Z,1016.10
2018-01-13T05:41:17.128Z,1016.10
2018-01-13T05:42:17.104Z,1016.07
2018-01-13T05:43:17.211Z,1016.08
2018-01-13T05:44:17.175Z,1016.08
2018-01-13T05:45:17.172Z,1016.09
2018-01-13T05:46:17.235Z,1016.11
2018-01-13T05:47:17.233Z,1016.12
2018-01-13T05:48:17.173Z,1016.11
2018-01-13T05:49:17.167Z,1016.11
2018-01-13T05:50:17.236Z,1016.10
2018-01-13T05:51:17.235Z,1016.10
2018-01-13T05:52:17.170Z,1016.12
2018-01-13T05:53:17.239Z,1016.06
2018-01-13T05:54:17.174Z,1016.06
2018-01-13T05:55:17.098Z,1016.11
2018-01-13T05:56:17.188Z,1016.12
2018-01-13T05:57:17.131Z,1016.11
2018-01-13T05:58:17.110Z,1016.11
2018-01-13T05:59:17.222Z,1016.11
2018-01-13T06:00:17.233Z,1016.11
2018-01-13T06:01:17.195Z,1016.11
2018-01-13T06:02:17.192Z,1016.11
2018-01-13T06:03:17.133Z,1016.11
2018-01-13T06:04:17.194Z,1016.11
2018-01-13T06:05:17.121Z,1016.11
2018-01-13T06:06:17.134Z,1016.11
2018-01-13T06:07:17.155Z,1016.11
2018-01-13T06:08:17.238Z,1016.11
2018-01-13T06:09:17.166Z,1016.11
2018-01-13T06:10:17.237Z,1016.11
2018-01-13T06:11:17.170Z,1016.11
2018-01-13T06:12:17.125Z,1016.11
2018-01-13T06:13:17.241Z,1016.11
2018-01-13T06:14:17.207Z,1016.11
2018-01-13T06:15:17.183Z,1016.11
2018-01-13T06:16:17.255Z,1016.11
2018-01-13T06:17:17.260Z,1016.11
2018-01-13T06:18:17.187Z,1016.11
2018-01-13T06:19:17.254Z,1016.11
2018-01-13T06:20:17.193Z,1016.11
2018-01-13T06:21:17.260Z,1016.11
2018-01-13T06:22:17.188Z,1016.11
2018-01-13T06:23:17.260Z,1016.11
2018-01-13T06:24:17.256Z,1016.11
2018-01-13T06:25:17.184Z,1016.11
2018-01-13T06:26:17.255Z,1016.11
2018-01-13T06:27:17.247Z,1016.11
2018-01-13T06:28:17.251Z,1016.11
2018-01-13T06:29:17.181Z,1016.11
2018-01-13T06:30:17.225Z,1016.11
2018-01-13T06:31:17.264Z,1016.11
2018-01-13T06:32:17.254Z,1016.11
2018-01-13T06:33:17.258Z,1016.11
2018-01-13T06:34:17.168Z,1016.11
2018-01-13T06:35:17.242Z,1016.11
2018-01-13T06:36:17.265Z,1016.11
2018-01-13T06:37:17.202Z,1016.11
2018-01-13T06:38:17.267Z,1016.11
2018-01-13T06:39:17.273Z,1016.11
2018-01-13T06:40:17.266Z,1016.11
2018-01-13T06:41:17.202Z,1016.11
2018-01-13T06:42:17.274Z,1016.11
2018-01-13T06:43:17.204Z,1016.11
2018-01-13T06:44:17.217Z,1016.11
2018-01-13T06:45:17.268Z,1016.11
2018-01-13T06:46:17.208Z,1016.11
2018-01-13T06:47:17.271Z,1016.11
2018-01-13T06:48:17.216Z,1016.11
2018-01-13T06:49:17.269Z,1016.11
2018-01-13T06:50:17.270Z,1016.11
2018-01-13T06:51:17.210Z,1016.11
2018-01-13T06:52:17.211Z,1016.11
2018-01-13T06:53:17.271Z,1016.11
2018-01-13T06:54:17.209Z,1016.11
2018-01-13T06:55:17.279Z,1016.11
2018-01-13T06:56:17.212Z,1016.11
2018-01-13T06:57:17.277Z,1016.11
2018-01-13T06:58:17.213Z,1016.11
2018-01-13T06:59:17.211Z,1016.11
2018-01-13T07:00:17.278Z,1016.11
2018-01-13T07:01:17.214Z,1016.11
2018-01-13T07:02:17.279Z,1016.28
2018-01-13T07:03:17.215Z,1016.30
2018-01-13T07:04:17.215Z,1016.31
2018-01-13T07:05:17.188Z,1016.28
2018-01-13T07:06:17.274Z,1016.25
2018-01-13T07:07:17.185Z,1016.31
2018-01-13T07:08:17.189Z,1016.27
2018-01-13T07:09:17.232Z,1016.29
2018-01-13T07:10:17.153Z,1016.28
2018-01-13T07:11:17.215Z,1016.26
2018-01-13T07:12:17.172Z,1016.29
2018-01-13T07:13:17.196Z,1016.27
2018-01-13T07:14:17.277Z,1016.34
2018-01-13T07:15:17.238Z,1016.33
2018-01-13T07:16:17.174Z,1016.31
2018-01-13T07:17:17.225Z,1016.34
2018-01-13T07:18:17.222Z,1016.35
2018-01-13T07:19:17.240Z,1016.41
2018-01-13T07:20:17.242Z,1016.37
2018-01-13T07:21:17.195Z,1016.37
2018-01-13T07:22:17.198Z,1016.40
2018-01-13T07:23:17.202Z,1016.38
2018-01-13T07:24:17.245Z,1016.39
2018-01-13T07:25:17.349Z,1016.42
2018-01-13T07:26:17.235Z,1016.41
2018-01-13T07:27:17.297Z,1016.41
2018-01-13T07:28:17.227Z,1016.41
2018-01-13T07:29:17.228Z,1016.41
2018-01-13T07:30:17.302Z,1016.40
2018-01-13T07:31:17.233Z,1016.42
2018-01-13T07:32:17.233Z,1016.42
2018-01-13T07:33:17.300Z,1016.36
2018-01-13T07:34:17.237Z,1016.41
2018-01-13T07:35:17.305Z,1016.39
2018-01-13T07:36:17.235Z,1016.36
2018-01-13T07:37:17.304Z,1016.40
2018-01-13T07:38:17.300Z,1016.40
2018-01-13T07:39:17.239Z,1016.37
2018-01-13T07:40:17.303Z,1016.43
2018-01-13T07:41:17.238Z,1016.40
2018-01-13T07:42:17.238Z,1016.36
2018-01-13T07:43:17.327Z,1016.41
2018-01-13T07:44:17.307Z,1016.39
2018-01-13T07:45:17.242Z,1016.39
2018-01-13T07:46:17.312Z,1016.38
2018-01-13T07:47:17.247Z,1016.44
2018-01-13T07:48:17.312Z,1016.42
2018-01-13T07:49:17.244Z,1016.41
2018-01-13T07:50:17.247Z,1016.42
2018-01-13T07:51:17.313Z,1016.40
2018-01-13T07:52:17.249Z,1016.40
2018-01-13T07:53:17.316Z,1016.42
2018-01-13T07:54:17.250Z,1016.44
2018-01-13T07:55:17.185Z,1016.42
2018-01-13T07:56:17.197Z,1016.44
2018-01-13T07:57:17.244Z,1016.42
2018-01-13T07:58:17.186Z,1016.39
2018-01-13T07:59:17.137Z,1016.38
2018-01-13T08:00:17.142Z,1016.35
2018-01-13T08:01:17.185Z,1016.36
2018-01-13T08:02:17.133Z,1016.36
2018-01-13T08:03:17.219Z,1016.34
2018-01-13T08:04:17.259Z,1016.33
2018-01-13T08:05:17.270Z,1016.39
2018-01-13T08:06:17.303Z,1016.38
2018-01-13T08:07:17.266Z,1016.39
2018-01-13T08:08:17.291Z,1016.37
2018-01-13T08:09:17.322Z,1016.40
2018-01-13T08:10:17.285Z,1016.39
2018-01-13T08:11:17.183Z,1016.38
2018-01-13T08:12:17.187Z,1016.35
2018-01-13T08:13:17.313Z,1016.36
2018-01-13T08:14:17.229Z,1016.35
2018-01-13T08:15:17.256Z,1016.38
2018-01-13T08:16:17.321Z,1016.37
2018-01-13T08:17:17.259Z,1016.37
2018-01-13T08:18:17.416Z,1016.33
2018-01-13T08:19:17.257Z,1016.36
2018-01-13T08:20:17.326Z,1016.42
2018-01-13T08:21:17.259Z,1016.40
2018-01-13T08:22:17.279Z,1016.42
2018-01-13T08:23:17.327Z,1016.39
2018-01-13T08:24:17.330Z,1016.43
2018-01-13T08:25:17.326Z,1016.46
2018-01-13T08:26:17.267Z,1016.44
2018-01-13T08:27:17.267Z,1016.45
2018-01-13T08:28:17.331Z,1016.44
2018-01-13T08:29:17.268Z,1016.44
2018-01-13T08:30:17.331Z,1016.50
2018-01-13T08:31:17.331Z,1016.46
2018-01-13T08:32:17.267Z,1016.49
2018-01-13T08:33:17.267Z,1016.50
2018-01-13T08:34:17.266Z,1016.52
2018-01-13T08:35:17.340Z,1016.52
2018-01-13T08:36:17.260Z,1016.52
2018-01-13T08:37:17.347Z,1016.55
2018-01-13T08:38:17.271Z,1016.55
2018-01-13T08:39:17.340Z,1016.55
2018-01-13T08:40:17.270Z,1016.60
2018-01-13T08:41:17.344Z,1016.55
2018-01-13T08:42:17.270Z,1016.58
2018-01-13T08:43:17.339Z,1016.57
2018-01-13T08:44:17.276Z,1016.57
2018-01-13T08:45:17.344Z,1016.56
2018-01-13T08:46:17.250Z,1016.52
2018-01-13T08:47:17.273Z,1016.55
2018-01-13T08:48:17.232Z,1016.54
2018-01-13T08:49:17.202Z,1016.54
2018-01-13T08:50:17.238Z,1016.59
2018-01-13T08:51:17.286Z,1016.59
2018-01-13T08:52:17.318Z,1016.56
2018-01-13T08:53:17.230Z,1016.58
2018-01-13T08:54:17.207Z,1016.61
2018-01-13T08:55:17.308Z,1016.59
2018-01-13T08:56:17.276Z,1016.59
2018-01-13T08:57:17.346Z,1016.56
2018-01-13T08:58:17.274Z,1016.61
2018-01-13T08:59:17.348Z,1016.58
2018-01-13T09:00:17.297Z,1016.56
2018-01-13T09:01:17.351Z,1016.57
2018-01-13T09:02:17.282Z,1016.57
2018-01-13T09:03:17.351Z,1016.54
2018-01-13T09:04:17.281Z,1016.53
2018-01-13T09:05:17.355Z,1016.55
2018-01-13T09:06:17.300Z,1016.52
2018-01-13T09:07:17.294Z,1016.56
2018-01-13T09:08:17.298Z,1016.56
2018-01-13T09:09:17.203Z,1016.59
2018-01-13T09:10:17.252Z,1016.56
2018-01-13T09:11:17.209Z,1016.54
2018-01-13T09:12:17.302Z,1016.60
2018-01-13T09:13:17.257Z,1016.58
2018-01-13T09:14:17.208Z,1016.57
2018-01-13T09:15:17.214Z,1016.57
2018-01-13T09:16:17.293Z,1016.59
2018-01-13T09:17:17.360Z,1016.62
2018-01-13T09:18:17.292Z,1016.61
2018-01-13T09:19:17.362Z,1016.62
2018-01-13T09:20:17.346Z,1016.62
2018-01-13T09:21:17.448Z,1016.64
2018-01-13T09:22:17.361Z,1016.64
2018-01-13T09:23:17.290Z,1016.65
2018-01-13T09:24:17.368Z,1016.67
2018-01-13T09:25:17.358Z,1016.67
2018-01-13T09:26:17.300Z,1016.72
2018-01-13T09:27:17.368Z,1016.71
2018-01-13T09:28:17.341Z,1016.74
2018-01-13T09:29:17.367Z,1016.69
2018-01-13T09:30:17.305Z,1016.71
2018-01-13T09:31:17.377Z,1016.75
2018-01-13T09:32:17.302Z,1016.75
2018-01-13T09:33:17.302Z,1016.79
2018-01-13T09:34:17.369Z,1016.81
2018-01-13T09:35:17.306Z,1016.80
2018-01-13T09:36:17.369Z,1016.80
2018-01-13T09:37:17.306Z,1016.85
2018-01-13T09:38:17.371Z,1016.81
2018-01-13T09:39:17.372Z,1016.85
2018-01-13T09:40:17.304Z,1016.84
2018-01-13T09:41:17.309Z,1016.85
2018-01-13T09:42:17.374Z,1016.83
2018-01-13T09:43:17.307Z,1016.87
2018-01-13T09:44:17.375Z,1016.91
2018-01-13T09:45:17.313Z,1016.86
2018-01-13T09:46:17.378Z,1016.85
2018-01-13T09:47:17.306Z,1016.83
2018-01-13T09:48:17.376Z,1016.88
2018-01-13T09:49:17.302Z,1016.88
2018-01-13T09:50:17.379Z,1016.89
2018-01-13T09:51:17.306Z,1016.89
2018-01-13T09:52:17.406Z,1016.87
2018-01-13T09:53:17.310Z,1016.88
2018-01-13T09:54:17.381Z,1016.85
2018-01-13T09:55:17.308Z,1016.87
2018-01-13T09:56:17.382Z,1016.79
2018-01-13T09:57:17.310Z,1016.82
2018-01-13T09:58:17.272Z,1016.84
2018-01-13T09:59:17.319Z,1016.85
2018-01-13T10:00:17.384Z,1016.84
2018-01-13T10:01:17.316Z,1016.83
2018-01-13T10:02:17.324Z,1016.82
2018-01-13T10:03:17.385Z,1016.82
2018-01-13T10:04:17.323Z,1016.82
2018-01-13T10:05:17.391Z,1016.79
2018-01-13T10:06:17.373Z,1016.80
2018-01-13T10:07:17.318Z,1016.77
2018-01-13T10:08:17.350Z,1016.75
2018-01-13T10:09:17.277Z,1016.77
2018-01-13T10:10:17.255Z,1016.79
2018-01-13T10:11:17.301Z,1016.73
2018-01-13T10:12:17.422Z,1016.72
2018-01-13T10:13:17.277Z,1016.71
2018-01-13T10:14:17.318Z,1016.74
2018-01-13T10:15:17.261Z,1016.70
2018-01-13T10:16:17.395Z,1016.68
2018-01-13T10:17:17.332Z,1016.68
2018-01-13T10:18:17.398Z,1016.68
2018-01-13T10:19:17.331Z,1016.67
2018-01-13T10:20:17.396Z,1016.67
2018-01-13T10:21:17.397Z,1016.63
2018-01-13T10:22:17.380Z,1016.59
2018-01-13T10:23:17.398Z,1016.61
2018-01-13T10:24:17.329Z,1016.58
2018-01-13T10:25:17.400Z,1016.62
2018-01-13T10:26:17.335Z,1016.56
2018-01-13T10:27:17.401Z,1016.57
2018-01-13T10:28:17.379Z,1016.57
2018-01-13T10:29:17.330Z,1016.53
2018-01-13T10:30:17.403Z,1016.56
2018-01-13T10:31:17.339Z,1016.53
2018-01-13T10:32:17.405Z,1016.57
2018-01-13T10:33:17.336Z,1016.55
2018-01-13T10:34:17.406Z,1016.55
2018-01-13T10:35:17.334Z,1016.55
2018-01-13T10:36:17.318Z,1016.51
2018-01-13T10:37:17.285Z,1016.51
2018-01-13T10:38:17.393Z,1016.55
2018-01-13T10:39:17.311Z,1016.48
2018-01-13T10:40:17.408Z,1016.45
2018-01-13T10:41:17.341Z,1016.44
2018-01-13T10:42:17.429Z,1016.43
2018-01-13T10:43:17.342Z,1016.41
2018-01-13T10:44:17.273Z,1016.44
2018-01-13T10:45:17.401Z,1016.38
2018-01-13T10:46:17.341Z,1016.42
2018-01-13T10:47:17.414Z,1016.38
2018-01-13T10:48:17.415Z,1016.40
2018-01-13T10:49:17.347Z,1016.33
2018-01-13T10:50:17.420Z,1016.35
2018-01-13T10:51:17.345Z,1016.35
2018-01-13T10:52:17.417Z,1016.38
2018-01-13T10:53:17.347Z,1016.34
2018-01-13T10:54:17.432Z,1016.31
2018-01-13T10:55:17.354Z,1016.28
2018-01-13T10:56:17.406Z,1016.31
2018-01-13T10:57:17.349Z,1016.32
2018-01-13T10:58:17.365Z,1016.29
2018-01-13T10:59:17.328Z,1016.31
2018-01-13T11:00:17.411Z,1016.29
2018-01-13T11:01:17.285Z,1016.26
2018-01-13T11:02:17.373Z,1016.29
2018-01-13T11:03:17.376Z,1016.28
2018-01-13T11:04:17.393Z,1016.30
2018-01-13T11:05:17.369Z,1016.27
2018-01-13T11:06:17.425Z,1016.28
2018-01-13T11:07:17.354Z,1016.28
2018-01-13T11:08:17.426Z,1016.32
2018-01-13T11:09:17.356Z,1016.32
2018-01-13T11:10:17.452Z,1016.34
2018-01-13T11:11:17.428Z,1016.36
2018-01-13T11:12:17.362Z,1016.37
2018-01-13T11:13:17.428Z,1016.36
2018-01-13T11:14:17.360Z,1016.35
2018-01-13T11:15:17.432Z,1016.33
2018-01-13T11:16:17.364Z,1016.29
2018-01-13T11:17:17.364Z,1016.33
2018-01-13T11:18:17.432Z,1016.32
2018-01-13T11:19:17.371Z,1016.30
2018-01-13T11:20:17.437Z,1016.29
2018-01-13T11:21:17.368Z,1016.30
2018-01-13T11:22:17.449Z,1016.31
2018-01-13T11:23:17.367Z,1016.30
2018-01-13T11:24:17.438Z,1016.29
2018-01-13T11:25:17.436Z,1016.25
2018-01-13T11:26:17.425Z,1016.26
2018-01-13T11:27:17.369Z,1016.27
2018-01-13T11:28:17.366Z,1016.26
2018-01-13T11:29:17.324Z,1016.22
2018-01-13T11:30:17.304Z,1016.21
2018-01-13T11:31:17.429Z,1016.21
2018-01-13T11:32:17.441Z,1016.25
2018-01-13T11:33:17.428Z,1016.23
2018-01-13T11:34:17.371Z,1016.18
2018-01-13T11:35:17.326Z,1016.23
2018-01-13T11:36:17.443Z,1016.20
2018-01-13T11:37:17.373Z,1016.25
2018-01-13T11:38:17.371Z,1016.24
2018-01-13T11:39:17.444Z,1016.24
2018-01-13T11:40:17.381Z,1016.19
2018-01-13T11:41:17.446Z,1016.21
2018-01-13T11:42:17.373Z,1016.20
2018-01-13T11:43:17.445Z,1016.20
2018-01-13T11:44:17.379Z,1016.20
2018-01-13T11:45:17.381Z,1016.18
2018-01-13T11:46:17.338Z,1016.17
2018-01-13T11:47:17.434Z,1016.20
2018-01-13T11:48:17.338Z,1016.17
2018-01-13T11:49:17.383Z,1016.19
2018-01-13T11:50:17.335Z,1016.18
2018-01-13T11:51:17.383Z,1016.18
2018-01-13T11:52:17.429Z,1016.17
2018-01-13T11:53:17.349Z,1016.16
2018-01-13T11:54:17.437Z,1016.16
2018-01-13T11:55:17.344Z,1016.18
2018-01-13T11:56:17.363Z,1016.15
2018-01-13T11:57:17.352Z,1016.13
2018-01-13T11:58:17.360Z,1016.18
2018-01-13T11:59:17.405Z,1016.20
2018-01-13T12:00:17.369Z,1016.16
2018-01-13T12:01:17.358Z,1016.15
2018-01-13T12:02:17.403Z,1016.15
2018-01-13T12:03:17.351Z,1016.18
2018-01-13T12:04:17.457Z,1016.19
2018-01-13T12:05:17.363Z,1016.19